Time;durP1;ratioP1;P1;durP2;ratioP2;P2;SDS_P1;SDS_P2;PMS_P1;PMS_P2;Temp;Humidity;BMP_temperature;BMP_pressure;BME280_temperature;BME280_humidity;BME280_pressure;Samples;Min_cycle;Max_cycle;Signal;HPM_P1;HPM_P2
2022/11/04 00:01:08;;;;;;;;;;;11.20;99.90;;;;;;5114715;28;19908;-76
2022/11/04 00:03:33;;;;;;;;;;;11.20;99.90;;;;;;5113630;28;19923;-76
2022/11/04 00:05:59;;;;;;;;;;;11.20;99.90;;;;;;5114042;28;19916;-76
2022/11/04 00:08:25;;;;;;;;;;;11.20;99.90;;;;;;5114598;28;20006;-75
2022/11/04 00:13:38;;;;;;;;;;;11.20;99.90;;;;;;5113795;28;19914;-77
2022/11/04 00:18:48;;;;;;;;;;;11.10;99.90;;;;;;5114018;28;19929;-78
2022/11/04 00:29:26;;;;;;;;;;;11.10;99.90;;;;;;5114217;28;19957;-76
2022/11/04 00:34:35;;;;;;;;;;;11.10;99.90;;;;;;5113889;28;20287;-78
2022/11/04 00:37:04;;;;;;;;;;;11.00;99.90;;;;;;5113797;28;19908;-77
2022/11/04 00:39:29;;;;;;;;;;;11.10;99.90;;;;;;5115558;28;19908;-77
2022/11/04 00:41:55;;;;;;;;;;;11.00;99.90;;;;;;5117991;28;20278;-76
2022/11/04 00:44:20;;;;;;;;;;;11.00;99.90;;;;;;5117708;28;19914;-76
2022/11/04 00:46:45;;;;;;;;;;;11.00;99.90;;;;;;5117612;28;19912;-74
2022/11/04 00:49:12;;;;;;;;;;;11.00;99.90;;;;;;5117872;28;19915;-77
2022/11/04 00:51:37;;;;;;;;;;;11.00;99.90;;;;;;5117504;28;19908;-77
2022/11/04 00:54:03;;;;;;;;;;;11.00;99.90;;;;;;5117519;28;19919;-79
2022/11/04 00:56:29;;;;;;;;;;;11.00;99.90;;;;;;5118010;28;19908;-76
2022/11/04 00:58:54;;;;;;;;;;;10.90;99.90;;;;;;5117406;28;19908;-77
2022/11/04 01:01:20;;;;;;;;;;;10.90;99.90;;;;;;5117418;28;20368;-76
2022/11/04 01:03:50;;;;;;;;;;;10.90;99.90;;;;;;5117054;28;19920;-75
2022/11/04 01:06:15;;;;;;;;;;;10.90;99.90;;;;;;5117484;28;19912;-78
2022/11/04 01:08:41;;;;;;;;;;;10.80;99.90;;;;;;5099506;28;19961;-76
2022/11/04 01:11:07;;;;;;;;;;;10.80;99.90;;;;;;5117244;28;19939;-76
2022/11/04 01:13:33;;;;;;;;;;;10.80;99.90;;;;;;5117855;28;19908;-78
2022/11/04 01:15:59;;;;;;;;;;;10.80;99.90;;;;;;5117023;28;19961;-76
2022/11/04 01:18:25;;;;;;;;;;;10.80;99.90;;;;;;5117597;28;20295;-76
2022/11/04 01:20:51;;;;;;;;;;;10.70;99.90;;;;;;5117002;28;19911;-76
2022/11/04 01:23:16;;;;;;;;;;;10.70;99.90;;;;;;5117186;28;20052;-76
2022/11/04 01:25:42;;;;;;;;;;;10.70;99.90;;;;;;5116808;28;19908;-77
2022/11/04 01:28:07;;;;;;;;;;;10.70;99.90;;;;;;5117416;28;19907;-75
2022/11/04 01:30:33;;;;;;;;;;;10.60;99.90;;;;;;5116811;28;19911;-76
2022/11/04 01:32:58;;;;;;;;;;;10.60;99.90;;;;;;5116761;28;19915;-77
2022/11/04 01:35:24;;;;;;;;;;;10.60;99.90;;;;;;5116725;28;19907;-75
2022/11/04 01:37:49;;;;;;;;;;;10.60;99.90;;;;;;5116942;28;19912;-79
2022/11/04 01:40:15;;;;;;;;;;;10.50;99.90;;;;;;5116671;28;19960;-76
2022/11/04 01:42:40;;;;;;;;;;;10.50;99.90;;;;;;5116604;28;19914;-78
2022/11/04 01:45:16;;;;;;;;;;;10.50;99.90;;;;;;5098266;28;19914;-77
2022/11/04 01:47:53;;;;;;;;;;;10.40;99.90;;;;;;5116715;28;19957;-76
2022/11/04 01:50:21;;;;;;;;;;;10.40;99.90;;;;;;5116233;28;19908;-77
2022/11/04 01:52:47;;;;;;;;;;;10.40;99.90;;;;;;5116379;28;19915;-76
2022/11/04 01:55:15;;;;;;;;;;;10.40;99.90;;;;;;5116347;28;19908;-76
2022/11/04 01:57:41;;;;;;;;;;;10.40;99.90;;;;;;5116852;28;19974;-76
2022/11/04 02:00:07;;;;;;;;;;;10.40;99.90;;;;;;5116245;28;19915;-78
2022/11/04 02:02:36;;;;;;;;;;;10.30;99.90;;;;;;5097806;28;19919;-76
2022/11/04 02:05:01;;;;;;;;;;;10.30;99.90;;;;;;5097880;28;19908;-75
2022/11/04 02:07:27;;;;;;;;;;;10.30;99.90;;;;;;5116553;28;19911;-76
2022/11/04 02:09:54;;;;;;;;;;;10.30;99.90;;;;;;5116299;28;20271;-75
2022/11/04 02:15:03;;;;;;;;;;;10.20;99.90;;;;;;5115737;28;19989;-78
2022/11/04 02:17:32;;;;;;;;;;;10.20;99.90;;;;;;5116460;28;19924;-76
2022/11/04 02:20:10;;;;;;;;;;;10.20;99.90;;;;;;5115806;28;19908;-76
2022/11/04 02:22:35;;;;;;;;;;;10.20;99.90;;;;;;5115909;28;20330;-76
2022/11/04 02:25:04;;;;;;;;;;;10.10;99.90;;;;;;5115738;28;19907;-75
2022/11/04 02:27:36;;;;;;;;;;;10.20;99.90;;;;;;5115871;28;20367;-76
2022/11/04 02:30:09;;;;;;;;;;;10.10;99.90;;;;;;5115543;28;19931;-77
2022/11/04 02:32:41;;;;;;;;;;;10.10;99.90;;;;;;5115634;28;19908;-76
2022/11/04 02:35:24;;;;;;;;;;;10.10;99.90;;;;;;5115826;28;19908;-78
2022/11/04 02:38:00;;;;;;;;;;;10.00;99.90;;;;;;5115511;28;19953;-75
2022/11/04 02:40:49;;;;;;;;;;;10.00;99.90;;;;;;5115769;28;19909;-75
2022/11/04 02:43:17;;;;;;;;;;;10.00;99.90;;;;;;5097020;28;19961;-77
2022/11/04 02:45:45;;;;;;;;;;;9.90;99.90;;;;;;5115511;28;19999;-76
2022/11/04 02:48:31;;;;;;;;;;;9.90;99.90;;;;;;5115273;28;20420;-78
2022/11/04 02:51:03;;;;;;;;;;;9.90;99.90;;;;;;5115546;28;19914;-77
2022/11/04 02:53:37;;;;;;;;;;;9.90;99.90;;;;;;5115430;28;20442;-77
2022/11/04 02:56:04;;;;;;;;;;;9.90;99.90;;;;;;5115457;28;19930;-78
2022/11/04 02:58:33;;;;;;;;;;;9.80;99.90;;;;;;5115113;28;19953;-77
2022/11/04 03:00:59;;;;;;;;;;;9.80;99.90;;;;;;5114908;28;19908;-78
2022/11/04 03:03:27;;;;;;;;;;;9.80;99.90;;;;;;5114471;28;20037;-77
2022/11/04 03:05:54;;;;;;;;;;;9.80;99.90;;;;;;5115450;28;19915;-76
2022/11/04 03:08:30;;;;;;;;;;;9.70;99.90;;;;;;5115398;28;20427;-76
2022/11/04 03:11:05;;;;;;;;;;;9.70;99.90;;;;;;5115164;28;19914;-76
2022/11/04 03:13:51;;;;;;;;;;;9.70;99.90;;;;;;5114840;28;19908;-77
2022/11/04 03:16:18;;;;;;;;;;;9.70;99.90;;;;;;5114798;28;19908;-79
2022/11/04 03:18:52;;;;;;;;;;;9.70;99.90;;;;;;5114408;28;19958;-76
2022/11/04 03:21:19;;;;;;;;;;;9.70;99.90;;;;;;5096430;28;20010;-75
2022/11/04 03:23:44;;;;;;;;;;;9.70;99.90;;;;;;5114632;28;20371;-75
2022/11/04 03:26:13;;;;;;;;;;;9.70;99.90;;;;;;5114555;28;19912;-77
2022/11/04 03:28:39;;;;;;;;;;;9.80;99.90;;;;;;5114519;28;19908;-78
2022/11/04 03:31:05;;;;;;;;;;;9.80;99.90;;;;;;5114571;28;19908;-76
2022/11/04 03:33:44;;;;;;;;;;;9.80;99.90;;;;;;5114787;28;19912;-76
2022/11/04 03:36:10;;;;;;;;;;;9.80;99.90;;;;;;5114443;28;20006;-76
2022/11/04 03:38:36;;;;;;;;;;;9.80;99.90;;;;;;5114709;28;20444;-76
2022/11/04 03:41:03;;;;;;;;;;;9.80;99.90;;;;;;5114404;28;20432;-77
2022/11/04 03:43:29;;;;;;;;;;;9.80;99.90;;;;;;5114959;28;19951;-76
2022/11/04 03:45:55;;;;;;;;;;;9.80;99.90;;;;;;5114550;28;19908;-76
2022/11/04 03:48:21;;;;;;;;;;;9.80;99.90;;;;;;5114885;28;20413;-75
2022/11/04 03:50:47;;;;;;;;;;;9.90;99.90;;;;;;5114257;28;20383;-77
2022/11/04 03:53:14;;;;;;;;;;;9.90;99.90;;;;;;5114242;28;19908;-75
2022/11/04 03:55:43;;;;;;;;;;;9.90;99.90;;;;;;5114169;28;19908;-77
2022/11/04 03:58:31;;;;;;;;;;;9.80;99.90;;;;;;5114446;28;19958;-76
2022/11/04 04:01:02;;;;;;;;;;;9.90;99.90;;;;;;5066582;28;19916;-76
2022/11/04 04:03:34;;;;;;;;;;;9.90;99.90;;;;;;5113941;28;19920;-76
2022/11/04 04:06:17;;;;;;;;;;;9.90;99.90;;;;;;5114344;28;19961;-76
2022/11/04 04:08:50;;;;;;;;;;;9.90;99.90;;;;;;5114659;28;19911;-76
2022/11/04 04:11:42;;;;;;;;;;;10.00;99.90;;;;;;5114644;28;19908;-76
2022/11/04 04:14:38;;;;;;;;;;;10.00;99.90;;;;;;5076310;28;19914;-76
2022/11/04 04:17:11;;;;;;;;;;;9.90;99.90;;;;;;5118542;28;19923;-75
2022/11/04 04:19:38;;;;;;;;;;;9.90;99.90;;;;;;5118184;28;19965;-76
2022/11/04 04:22:07;;;;;;;;;;;10.00;99.90;;;;;;5118328;28;20271;-77
2022/11/04 04:27:32;;;;;;;;;;;9.90;99.90;;;;;;5118201;28;19919;-76
2022/11/04 04:29:58;;;;;;;;;;;10.00;99.90;;;;;;5118246;28;19908;-76
2022/11/04 04:32:25;;;;;;;;;;;9.90;99.90;;;;;;5118502;28;19961;-76
2022/11/04 04:35:40;;;;;;;;;;;9.90;99.90;;;;;;5118195;28;19953;-76
2022/11/04 04:37:36;;;;;;;;;;;9.90;99.90;;;;;;5117561;28;19961;-76
2022/11/04 04:45:31;;;;;;;;;;;10.00;99.90;;;;;;5117465;28;19999;-75
2022/11/04 04:47:56;;;;;;;;;;;9.90;99.90;;;;;;5117586;28;19951;-75
2022/11/04 04:50:24;;;;;;;;;;;9.90;99.90;;;;;;5117898;28;19914;-75
2022/11/04 04:52:51;;;;;;;;;;;9.90;99.90;;;;;;5117520;28;19908;-76
2022/11/04 04:55:17;;;;;;;;;;;10.00;99.90;;;;;;5117781;28;20275;-76
2022/11/04 04:57:43;;;;;;;;;;;9.90;99.90;;;;;;5117478;28;19908;-76
2022/11/04 05:00:11;;;;;;;;;;;9.80;99.90;;;;;;5117707;28;19915;-76
2022/11/04 05:02:36;;;;;;;;;;;9.70;99.90;;;;;;5117156;28;20384;-75
2022/11/04 05:05:02;;;;;;;;;;;9.70;99.90;;;;;;5117432;28;19908;-76
2022/11/04 05:07:28;;;;;;;;;;;9.70;99.90;;;;;;5117761;28;19912;-75
2022/11/04 05:09:53;;;;;;;;;;;9.60;99.90;;;;;;5117556;28;19919;-75
2022/11/04 05:12:19;;;;;;;;;;;9.60;99.90;;;;;;5118786;28;19908;-78
2022/11/04 05:14:44;;;;;;;;;;;9.50;99.90;;;;;;5118967;28;20371;-76
2022/11/04 05:17:10;;;;;;;;;;;9.50;99.90;;;;;;5118104;28;19957;-76
2022/11/04 05:19:35;;;;;;;;;;;9.40;99.90;;;;;;5117348;28;19915;-75
2022/11/04 05:22:02;;;;;;;;;;;9.40;99.90;;;;;;5116926;28;19908;-76
2022/11/04 05:24:27;;;;;;;;;;;9.50;99.90;;;;;;5116385;28;19908;-76
2022/11/04 05:26:53;;;;;;;;;;;9.50;99.90;;;;;;5117133;28;19911;-76
2022/11/04 05:29:18;;;;;;;;;;;9.40;99.90;;;;;;5116839;28;19912;-77
2022/11/04 05:31:44;;;;;;;;;;;9.40;99.90;;;;;;5116848;28;19919;-79
2022/11/04 05:34:10;;;;;;;;;;;9.40;99.90;;;;;;5116745;28;19907;-77
2022/11/04 05:36:36;;;;;;;;;;;9.50;99.90;;;;;;5116719;28;19915;-77
2022/11/04 05:39:02;;;;;;;;;;;9.50;99.90;;;;;;5116945;28;19969;-76
2022/11/04 05:41:27;;;;;;;;;;;9.50;99.90;;;;;;5116560;28;19908;-78
2022/11/04 05:44:00;;;;;;;;;;;9.60;99.90;;;;;;5116837;28;19915;-76
2022/11/04 05:46:26;;;;;;;;;;;9.60;99.90;;;;;;5116467;28;19912;-77
2022/11/04 05:48:53;;;;;;;;;;;9.60;99.90;;;;;;5116504;28;19915;-76
2022/11/04 05:51:20;;;;;;;;;;;9.70;99.90;;;;;;5117058;28;19908;-76
2022/11/04 05:53:46;;;;;;;;;;;9.70;99.90;;;;;;5116376;28;19943;-75
2022/11/04 05:56:11;;;;;;;;;;;9.70;99.90;;;;;;5116601;28;19943;-77
2022/11/04 05:58:37;;;;;;;;;;;9.90;99.90;;;;;;5116280;28;20002;-75
2022/11/04 06:01:12;;;;;;;;;;;9.90;99.90;;;;;;5116527;28;19931;-77
2022/11/04 06:03:38;;;;;;;;;;;10.00;99.90;;;;;;5115941;28;19920;-76
2022/11/04 06:06:03;;;;;;;;;;;10.00;99.90;;;;;;5116089;28;19999;-78
2022/11/04 06:08:30;;;;;;;;;;;9.90;99.90;;;;;;5116630;28;20276;-78
2022/11/04 06:10:56;;;;;;;;;;;9.90;99.90;;;;;;5116323;28;20244;-75
2022/11/04 06:13:21;;;;;;;;;;;9.80;99.90;;;;;;5116285;28;19915;-77
2022/11/04 06:15:47;;;;;;;;;;;9.80;99.90;;;;;;5115963;28;19908;-78
2022/11/04 06:18:12;;;;;;;;;;;9.80;99.90;;;;;;5115915;28;19914;-76
2022/11/04 06:20:38;;;;;;;;;;;9.80;99.90;;;;;;5116111;28;20501;-76
2022/11/04 06:23:03;;;;;;;;;;;9.80;99.90;;;;;;5115745;28;19933;-77
2022/11/04 06:25:29;;;;;;;;;;;9.90;99.90;;;;;;5115786;28;19908;-76
2022/11/04 06:27:54;;;;;;;;;;;9.90;99.90;;;;;;5115677;28;19918;-76
2022/11/04 06:30:20;;;;;;;;;;;9.90;99.90;;;;;;5115993;28;19947;-78
2022/11/04 06:32:45;;;;;;;;;;;10.00;99.90;;;;;;5115621;28;20371;-76
2022/11/04 06:35:11;;;;;;;;;;;9.90;99.90;;;;;;5115597;28;19915;-78
2022/11/04 06:37:36;;;;;;;;;;;9.90;99.90;;;;;;5114872;28;19908;-75
2022/11/04 06:40:02;;;;;;;;;;;10.00;99.90;;;;;;5115446;28;20036;-75
2022/11/04 06:42:28;;;;;;;;;;;10.00;99.90;;;;;;5115426;28;19908;-79
2022/11/04 06:44:53;;;;;;;;;;;10.00;99.90;;;;;;5115379;28;19915;-77
2022/11/04 06:47:19;;;;;;;;;;;10.00;99.90;;;;;;5115589;28;19918;-77
2022/11/04 06:49:44;;;;;;;;;;;10.10;99.90;;;;;;5097044;28;19911;-76
2022/11/04 06:52:10;;;;;;;;;;;10.10;99.90;;;;;;5115542;28;20307;-76
2022/11/04 06:54:35;;;;;;;;;;;10.10;99.90;;;;;;5115205;28;19907;-78
2022/11/04 06:57:01;;;;;;;;;;;10.10;99.90;;;;;;5115223;28;19943;-76
2022/11/04 06:59:27;;;;;;;;;;;10.10;99.90;;;;;;5115684;28;19915;-77
2022/11/04 07:01:52;;;;;;;;;;;10.10;99.90;;;;;;5114927;28;20321;-76
2022/11/04 07:04:18;;;;;;;;;;;10.10;99.90;;;;;;5115006;28;19956;-75
2022/11/04 07:06:43;;;;;;;;;;;10.10;99.90;;;;;;5114905;28;19916;-78
2022/11/04 07:09:10;;;;;;;;;;;10.10;99.90;;;;;;5115256;28;19907;-77
2022/11/04 07:11:35;;;;;;;;;;;10.20;99.90;;;;;;5114862;28;19908;-77
2022/11/04 07:14:01;;;;;;;;;;;10.20;99.90;;;;;;5114793;28;20370;-78
2022/11/04 07:16:27;;;;;;;;;;;10.20;99.90;;;;;;5115080;28;19908;-76
2022/11/04 07:18:53;;;;;;;;;;;10.10;99.90;;;;;;5114735;28;20360;-78
2022/11/04 07:21:18;;;;;;;;;;;10.10;99.90;;;;;;5114698;28;20045;-78
2022/11/04 07:23:44;;;;;;;;;;;10.20;99.90;;;;;;5114878;28;19957;-77
2022/11/04 07:26:10;;;;;;;;;;;10.10;99.90;;;;;;5114570;28;19998;-77
2022/11/04 07:28:36;;;;;;;;;;;10.20;99.90;;;;;;5115151;28;19908;-78
2022/11/04 07:31:02;;;;;;;;;;;10.20;99.90;;;;;;5114835;28;19908;-76
2022/11/04 07:33:28;;;;;;;;;;;10.30;99.90;;;;;;5114778;28;20267;-77
2022/11/04 07:35:53;;;;;;;;;;;10.30;99.90;;;;;;5096211;28;19914;-76
2022/11/04 07:38:19;;;;;;;;;;;10.40;99.90;;;;;;5114712;28;20006;-76
2022/11/04 07:40:45;;;;;;;;;;;10.40;99.90;;;;;;5115211;28;19911;-77
2022/11/04 07:43:10;;;;;;;;;;;10.40;99.90;;;;;;5114949;28;19908;-76
2022/11/04 07:45:36;;;;;;;;;;;10.50;99.90;;;;;;5114347;28;19914;-76
2022/11/04 07:48:02;;;;;;;;;;;10.50;99.90;;;;;;5114035;28;20318;-78
2022/11/04 07:50:27;;;;;;;;;;;10.50;99.90;;;;;;5114283;28;20372;-79
2022/11/04 07:52:53;;;;;;;;;;;10.60;99.90;;;;;;5114275;28;19994;-79
2022/11/04 07:55:18;;;;;;;;;;;10.70;99.90;;;;;;5114235;28;19957;-78
2022/11/04 07:57:45;;;;;;;;;;;10.70;99.90;;;;;;5114732;28;19912;-77
2022/11/04 08:00:10;;;;;;;;;;;10.80;99.90;;;;;;5114207;28;19907;-79
2022/11/04 08:02:36;;;;;;;;;;;10.80;99.90;;;;;;5114373;28;19923;-78
2022/11/04 08:05:02;;;;;;;;;;;10.90;99.90;;;;;;5114174;28;19908;-76
2022/11/04 08:07:27;;;;;;;;;;;10.90;99.90;;;;;;5114275;28;20272;-77
2022/11/04 08:09:53;;;;;;;;;;;11.00;99.90;;;;;;5114330;28;19908;-76
2022/11/04 08:12:20;;;;;;;;;;;11.00;99.90;;;;;;5114603;28;19915;-79
2022/11/04 08:14:46;;;;;;;;;;;11.00;99.90;;;;;;5095751;28;19908;-77
2022/11/04 08:17:12;;;;;;;;;;;11.00;99.90;;;;;;5114294;28;19953;-76
2022/11/04 08:19:37;;;;;;;;;;;11.10;99.90;;;;;;5113970;28;19915;-77
2022/11/04 08:22:02;;;;;;;;;;;11.10;99.90;;;;;;5113896;28;19955;-76
2022/11/04 08:24:28;;;;;;;;;;;11.10;99.90;;;;;;5113946;28;19914;-77
2022/11/04 08:26:53;;;;;;;;;;;11.10;99.90;;;;;;5114147;28;19915;-77
2022/11/04 08:29:19;;;;;;;;;;;11.10;99.90;;;;;;5113922;28;19908;-78
2022/11/04 08:31:44;;;;;;;;;;;11.20;99.90;;;;;;5113934;28;19911;-78
2022/11/04 08:34:10;;;;;;;;;;;11.30;99.90;;;;;;5114101;28;19907;-77
2022/11/04 08:36:37;;;;;;;;;;;11.30;99.90;;;;;;5114066;28;20363;-77
2022/11/04 08:39:03;;;;;;;;;;;11.40;99.90;;;;;;5113800;28;19915;-79
2022/11/04 08:41:30;;;;;;;;;;;11.40;99.90;;;;;;5096097;28;19914;-78
2022/11/04 08:43:58;;;;;;;;;;;11.50;99.90;;;;;;5113774;28;19907;-77
2022/11/04 08:46:24;;;;;;;;;;;11.70;99.90;;;;;;5113631;28;19916;-78
2022/11/04 08:48:50;;;;;;;;;;;12.20;99.90;;;;;;5113794;28;19915;-78
2022/11/04 08:51:17;;;;;;;;;;;12.60;99.90;;;;;;5113704;28;19947;-78
2022/11/04 08:53:42;;;;;;;;;;;12.90;99.90;;;;;;5113659;28;20363;-76
2022/11/04 08:56:09;;;;;;;;;;;13.20;99.90;;;;;;5113656;28;19915;-77
2022/11/04 08:58:35;;;;;;;;;;;13.40;99.90;;;;;;5113918;28;19914;-76
2022/11/04 09:01:02;;;;;;;;;;;13.50;99.90;;;;;;5116416;28;19998;-76
2022/11/04 09:03:28;;;;;;;;;;;13.70;99.90;;;;;;5117207;28;20443;-77
2022/11/04 09:05:56;;;;;;;;;;;13.80;99.90;;;;;;5117601;28;19998;-77
2022/11/04 09:08:21;;;;;;;;;;;13.90;99.90;;;;;;5117267;28;20402;-77
2022/11/04 09:10:47;;;;;;;;;;;14.10;99.90;;;;;;5117525;28;20032;-77
2022/11/04 09:13:14;;;;;;;;;;;14.20;99.90;;;;;;5117169;28;19914;-77
2022/11/04 09:15:40;;;;;;;;;;;14.10;99.90;;;;;;5117464;28;19908;-78
2022/11/04 09:18:06;;;;;;;;;;;14.20;99.90;;;;;;5117157;28;19914;-78
2022/11/04 09:20:32;;;;;;;;;;;14.30;99.90;;;;;;5117391;28;19907;-77
2022/11/04 09:22:57;;;;;;;;;;;14.40;99.90;;;;;;5116835;28;20291;-78
2022/11/04 09:25:23;;;;;;;;;;;14.40;99.90;;;;;;5116978;28;19908;-77
2022/11/04 09:27:49;;;;;;;;;;;14.50;99.90;;;;;;5117125;28;20367;-78
2022/11/04 09:30:14;;;;;;;;;;;14.50;99.90;;;;;;5116791;28;20390;-79
2022/11/04 09:32:40;;;;;;;;;;;14.60;99.90;;;;;;5117360;28;19908;-79
2022/11/04 09:35:06;;;;;;;;;;;14.60;99.90;;;;;;5117062;28;19915;-77
2022/11/04 09:37:31;;;;;;;;;;;14.60;99.90;;;;;;5117004;28;20381;-78
2022/11/04 09:39:57;;;;;;;;;;;14.70;99.90;;;;;;5117487;28;20359;-76
2022/11/04 09:42:45;;;;;;;;;;;14.70;99.90;;;;;;5116629;28;19930;-78
2022/11/04 09:45:12;;;;;;;;;;;14.60;99.90;;;;;;5116870;28;19991;-78
2022/11/04 09:47:39;;;;;;;;;;;14.70;99.90;;;;;;5116445;28;19912;-77
2022/11/04 09:50:07;;;;;;;;;;;14.80;99.90;;;;;;5116456;28;20004;-78
2022/11/04 09:52:37;;;;;;;;;;;14.80;99.90;;;;;;5116441;28;19908;-77
2022/11/04 09:55:13;;;;;;;;;;;14.90;99.90;;;;;;5116702;28;20382;-80
2022/11/04 09:57:38;;;;;;;;;;;15.00;99.90;;;;;;5116656;28;19914;-77
2022/11/04 10:00:05;;;;;;;;;;;15.00;99.90;;;;;;5116847;28;19911;-77
2022/11/04 10:02:45;;;;;;;;;;;15.00;99.90;;;;;;5116005;28;19916;-77
2022/11/04 10:05:13;;;;;;;;;;;14.90;99.90;;;;;;5116755;28;19991;-78
2022/11/04 10:07:41;;;;;;;;;;;14.90;99.90;;;;;;5116086;28;19935;-78
2022/11/04 10:10:09;;;;;;;;;;;15.00;99.90;;;;;;5116065;28;19908;-77
2022/11/04 10:12:35;;;;;;;;;;;15.00;99.90;;;;;;5116242;28;19907;-77
2022/11/04 10:15:19;;;;;;;;;;;15.00;99.90;;;;;;5116271;28;19908;-76
2022/11/04 10:18:08;;;;;;;;;;;15.00;99.90;;;;;;5116441;28;20399;-77
2022/11/04 10:20:36;;;;;;;;;;;15.00;99.90;;;;;;5068340;28;19908;-77
2022/11/04 10:23:10;;;;;;;;;;;14.90;99.90;;;;;;5115742;28;20321;-77
2022/11/04 10:25:39;;;;;;;;;;;14.90;99.90;;;;;;5097538;28;19915;-76
2022/11/04 10:28:09;;;;;;;;;;;15.00;99.90;;;;;;5097351;28;20019;-77
2022/11/04 10:30:35;;;;;;;;;;;14.90;99.90;;;;;;5116279;28;19908;-76
2022/11/04 10:33:15;;;;;;;;;;;15.00;99.90;;;;;;5117273;28;20044;-78
2022/11/04 10:35:44;;;;;;;;;;;15.00;99.90;;;;;;5117922;28;19908;-77
2022/11/04 10:38:16;;;;;;;;;;;15.00;99.90;;;;;;5117509;28;20280;-78
2022/11/04 10:40:44;;;;;;;;;;;15.00;99.90;;;;;;5116074;28;19908;-78
2022/11/04 10:43:12;;;;;;;;;;;15.10;99.90;;;;;;5116015;28;20013;-79
2022/11/04 10:45:41;;;;;;;;;;;15.00;99.90;;;;;;5115396;28;19915;-80
2022/11/04 10:48:11;;;;;;;;;;;14.90;99.90;;;;;;5115542;28;19916;-79
2022/11/04 10:50:55;;;;;;;;;;;14.80;99.90;;;;;;5115256;28;19915;-79
2022/11/04 10:53:28;;;;;;;;;;;15.00;99.90;;;;;;5115633;28;19915;-78
2022/11/04 10:55:56;;;;;;;;;;;15.00;99.90;;;;;;5115146;28;19907;-79
2022/11/04 10:58:24;;;;;;;;;;;15.00;99.90;;;;;;5115139;28;19908;-79
2022/11/04 11:00:50;;;;;;;;;;;14.90;99.90;;;;;;5115266;28;19912;-79
2022/11/04 11:03:25;;;;;;;;;;;14.70;99.90;;;;;;5115031;28;19923;-79
2022/11/04 11:05:51;;;;;;;;;;;14.60;99.90;;;;;;5115053;28;19943;-79
2022/11/04 11:08:28;;;;;;;;;;;14.50;99.90;;;;;;5114930;28;19912;-78
2022/11/04 11:10:55;;;;;;;;;;;14.40;99.90;;;;;;5115213;28;19908;-78
2022/11/04 11:13:24;;;;;;;;;;;14.30;99.90;;;;;;5096189;28;20662;-80
2022/11/04 11:16:02;;;;;;;;;;;14.10;99.90;;;;;;5114829;28;20364;-79
2022/11/04 11:18:28;;;;;;;;;;;14.10;99.90;;;;;;5115432;28;19976;-79
2022/11/04 11:21:08;;;;;;;;;;;14.10;99.90;;;;;;5114712;28;20367;-79
2022/11/04 11:23:40;;;;;;;;;;;13.90;99.90;;;;;;5114168;28;19908;-78
2022/11/04 11:26:16;;;;;;;;;;;14.00;99.90;;;;;;5115202;28;20404;-79
2022/11/04 11:28:46;;;;;;;;;;;14.20;99.90;;;;;;5096101;28;19908;-79
2022/11/04 11:31:22;;;;;;;;;;;14.30;99.90;;;;;;5114942;28;19995;-79
2022/11/04 11:33:58;;;;;;;;;;;14.30;99.90;;;;;;5096069;28;19915;-79
2022/11/04 11:36:25;;;;;;;;;;;14.30;99.90;;;;;;5114479;28;19951;-79
2022/11/04 11:38:57;;;;;;;;;;;14.30;99.90;;;;;;5114467;28;20291;-79
2022/11/04 11:41:30;;;;;;;;;;;14.30;99.90;;;;;;5115244;28;19908;-79
2022/11/04 11:43:58;;;;;;;;;;;14.30;99.90;;;;;;5114418;28;19930;-78
2022/11/04 11:46:25;;;;;;;;;;;14.30;99.90;;;;;;5114267;28;19915;-79
2022/11/04 11:48:52;;;;;;;;;;;14.40;99.90;;;;;;5114292;28;19912;-79
2022/11/04 11:51:26;;;;;;;;;;;14.30;99.90;;;;;;5114856;28;19907;-78
2022/11/04 11:54:10;;;;;;;;;;;14.30;99.90;;;;;;5114248;28;19915;-79
2022/11/04 11:56:42;;;;;;;;;;;14.10;99.90;;;;;;5114503;28;19908;-79
2022/11/04 11:59:17;;;;;;;;;;;14.10;99.90;;;;;;5114245;28;19990;-78
2022/11/04 12:02:01;;;;;;;;;;;14.20;99.90;;;;;;5114173;28;20264;-79
2022/11/04 12:04:27;;;;;;;;;;;14.30;99.90;;;;;;5073876;28;19965;-78
2022/11/04 12:06:52;;;;;;;;;;;14.40;99.90;;;;;;5073495;28;19920;-79
2022/11/04 12:09:44;;;;;;;;;;;14.40;99.90;;;;;;5073833;28;19908;-80
2022/11/04 12:12:19;;;;;;;;;;;14.50;99.90;;;;;;5069553;28;19974;-78
2022/11/04 12:14:57;;;;;;;;;;;14.60;99.90;;;;;;5072247;28;20026;-79
2022/11/04 12:17:43;;;;;;;;;;;14.70;99.90;;;;;;5073850;28;19944;-77
2022/11/04 12:20:19;;;;;;;;;;;14.60;99.90;;;;;;5073779;28;19908;-80
2022/11/04 12:23:03;;;;;;;;;;;14.60;99.90;;;;;;5073607;28;19919;-79
2022/11/04 12:25:40;;;;;;;;;;;14.70;99.90;;;;;;5073947;28;19913;-79
2022/11/04 12:28:27;;;;;;;;;;;14.70;99.90;;;;;;5073236;28;19920;-79
2022/11/04 12:30:52;;;;;;;;;;;14.70;99.90;;;;;;5073237;28;19991;-76
2022/11/04 12:33:27;;;;;;;;;;;14.60;99.90;;;;;;5073879;28;20356;-78
2022/11/04 12:36:07;;;;;;;;;;;14.50;99.90;;;;;;5075810;28;19908;-79
2022/11/04 12:38:47;;;;;;;;;;;14.40;99.90;;;;;;5077536;28;19915;-79
2022/11/04 12:41:32;;;;;;;;;;;14.40;99.90;;;;;;5077535;28;19916;-79
2022/11/04 12:44:14;;;;;;;;;;;14.50;99.90;;;;;;5077682;28;20271;-79
2022/11/04 12:46:46;;;;;;;;;;;14.60;99.90;;;;;;5077053;28;19913;-78
2022/11/04 12:49:20;;;;;;;;;;;14.70;99.90;;;;;;5077621;28;19915;-79
2022/11/04 12:51:53;;;;;;;;;;;14.70;99.90;;;;;;5076980;28;19909;-77
2022/11/04 12:54:37;;;;;;;;;;;14.70;99.90;;;;;;5077523;28;19908;-77
2022/11/04 12:57:03;;;;;;;;;;;14.50;99.90;;;;;;5076815;28;19947;-79
2022/11/04 12:59:43;;;;;;;;;;;14.40;99.90;;;;;;5076848;28;20276;-78
2022/11/04 13:02:15;;;;;;;;;;;14.40;99.90;;;;;;5081363;28;19909;-79
2022/11/04 13:04:44;;;;;;;;;;;14.50;99.90;;;;;;5117717;28;19957;-80
2022/11/04 13:07:17;;;;;;;;;;;14.60;99.90;;;;;;5117266;28;19911;-79
2022/11/04 13:09:44;;;;;;;;;;;14.60;99.90;;;;;;5117543;28;19907;-77
2022/11/04 13:12:20;;;;;;;;;;;14.60;99.90;;;;;;5117256;28;20380;-77
2022/11/04 13:14:48;;;;;;;;;;;14.60;99.90;;;;;;5117216;28;19916;-78
2022/11/04 13:17:19;;;;;;;;;;;14.60;99.90;;;;;;5117711;28;20370;-77
2022/11/04 13:19:50;;;;;;;;;;;14.60;99.90;;;;;;5117092;28;19911;-78
2022/11/04 13:22:19;;;;;;;;;;;14.70;99.90;;;;;;5116954;28;19908;-78
2022/11/04 13:24:50;;;;;;;;;;;14.70;99.90;;;;;;5117549;28;19978;-76
2022/11/04 13:27:22;;;;;;;;;;;14.80;99.90;;;;;;5116872;28;19959;-77
2022/11/04 13:29:49;;;;;;;;;;;14.90;99.90;;;;;;5117181;28;19912;-77
2022/11/04 13:32:32;;;;;;;;;;;15.00;99.90;;;;;;5117369;28;19912;-77
2022/11/04 13:35:07;;;;;;;;;;;15.00;99.90;;;;;;5117129;28;19973;-77
2022/11/04 13:37:47;;;;;;;;;;;15.00;99.90;;;;;;5116813;28;19915;-78
2022/11/04 13:40:13;;;;;;;;;;;15.00;99.90;;;;;;5117328;28;19984;-78
2022/11/04 13:42:50;;;;;;;;;;;15.00;99.90;;;;;;5116701;28;19977;-78
2022/11/04 13:45:17;;;;;;;;;;;15.00;99.90;;;;;;5116403;28;19915;-77
2022/11/04 13:47:42;;;;;;;;;;;15.00;99.90;;;;;;5116626;28;20410;-78
2022/11/04 13:50:26;;;;;;;;;;;14.90;99.90;;;;;;5116496;28;19943;-77
2022/11/04 13:52:52;;;;;;;;;;;14.90;99.90;;;;;;5117042;28;19908;-76
2022/11/04 13:55:21;;;;;;;;;;;14.80;99.90;;;;;;5116430;28;19933;-78
2022/11/04 13:58:06;;;;;;;;;;;14.80;99.90;;;;;;5116395;28;19908;-78
2022/11/04 14:00:33;;;;;;;;;;;14.80;99.90;;;;;;5115629;28;20364;-79
2022/11/04 14:02:59;;;;;;;;;;;14.90;99.90;;;;;;5116109;28;19919;-78
2022/11/04 14:05:31;;;;;;;;;;;14.90;99.90;;;;;;5116548;28;20363;-78
2022/11/04 14:08:02;;;;;;;;;;;14.80;99.90;;;;;;5116064;28;20390;-78
2022/11/04 14:10:43;;;;;;;;;;;14.80;99.90;;;;;;5116130;28;20003;-77
2022/11/04 14:13:33;;;;;;;;;;;14.70;99.90;;;;;;5097715;28;19908;-78
2022/11/04 14:15:59;;;;;;;;;;;14.70;99.90;;;;;;5116290;28;19939;-79
2022/11/04 14:18:26;;;;;;;;;;;14.70;99.90;;;;;;5115976;28;19977;-77
2022/11/04 14:21:00;;;;;;;;;;;14.80;99.90;;;;;;5116423;28;19957;-76
2022/11/04 14:23:26;;;;;;;;;;;14.70;99.90;;;;;;5115901;28;19908;-78
2022/11/04 14:26:00;;;;;;;;;;;14.70;99.90;;;;;;5116385;28;19953;-79
2022/11/04 14:28:27;;;;;;;;;;;14.80;99.90;;;;;;5115658;28;19919;-76
2022/11/04 14:31:04;;;;;;;;;;;14.90;99.90;;;;;;5116523;28;20428;-78
2022/11/04 14:33:34;;;;;;;;;;;14.90;99.90;;;;;;5115737;28;19908;-79
2022/11/04 14:36:33;;;;;;;;;;;14.80;99.90;;;;;;5115935;28;19908;-78
2022/11/04 14:39:07;;;;;;;;;;;14.70;99.90;;;;;;5060167;28;19951;-76
2022/11/04 14:41:33;;;;;;;;;;;14.60;99.90;;;;;;5097245;28;20313;-77
2022/11/04 14:44:00;;;;;;;;;;;14.70;99.90;;;;;;5115461;28;20286;-77
2022/11/04 14:46:33;;;;;;;;;;;14.60;99.90;;;;;;5097030;28;19907;-78
2022/11/04 14:49:01;;;;;;;;;;;14.60;99.90;;;;;;5115550;28;19961;-78
2022/11/04 14:51:27;;;;;;;;;;;14.60;99.90;;;;;;5115268;28;19908;-78
2022/11/04 14:54:04;;;;;;;;;;;14.60;99.90;;;;;;5115249;28;19908;-77
2022/11/04 14:56:29;;;;;;;;;;;14.60;99.90;;;;;;5115349;28;19914;-78
2022/11/04 14:58:58;;;;;;;;;;;14.60;99.90;;;;;;5114371;28;20279;-78
2022/11/04 15:01:24;;;;;;;;;;;14.50;99.90;;;;;;5115469;28;19908;-77